Time;durP1;ratioP1;P1;durP2;ratioP2;P2;SDS_P1;SDS_P2;PMS_P1;PMS_P2;Temp;Humidity;BMP_temperature;BMP_pressure;BME280_temperature;BME280_humidity;BME280_pressure;Samples;Min_cycle;Max_cycle;Signal;HPM_P1;HPM_P2
2022/10/17 00:01:06;;;;;;;1.47;1.37;;;21.90;46.30;;;;;;5012342;28;20601;-58
2022/10/17 00:03:33;;;;;;;1.37;1.27;;;21.90;46.30;;;;;;5014132;28;20227;-58
2022/10/17 00:06:03;;;;;;;1.43;1.33;;;21.90;46.30;;;;;;5005521;28;20481;-58
2022/10/17 00:08:28;;;;;;;1.27;1.17;;;21.90;46.30;;;;;;5012343;28;20452;-58
2022/10/17 00:11:03;;;;;;;1.70;1.43;;;21.90;46.30;;;;;;5012424;28;20984;-58
2022/10/17 00:13:29;;;;;;;1.70;1.30;;;21.90;46.30;;;;;;5010925;28;20718;-58
2022/10/17 00:15:55;;;;;;;1.33;1.23;;;21.90;46.30;;;;;;5002147;28;20745;-58
2022/10/17 00:18:21;;;;;;;1.57;1.30;;;21.90;46.30;;;;;;5013258;28;20564;-58
2022/10/17 00:20:46;;;;;;;2.37;1.23;;;21.90;46.40;;;;;;5014597;28;20227;-58
2022/10/17 00:23:12;;;;;;;1.40;1.30;;;21.90;46.40;;;;;;4996622;28;20225;-58
2022/10/17 00:25:37;;;;;;;1.40;1.30;;;21.90;46.30;;;;;;5008618;28;20266;-59
2022/10/17 00:28:03;;;;;;;5.77;1.50;;;21.90;46.30;;;;;;5008343;28;20223;-58
2022/10/17 00:30:29;;;;;;;1.77;1.67;;;21.90;46.30;;;;;;5000843;28;20252;-58
2022/10/17 00:32:54;;;;;;;1.50;1.40;;;21.90;46.40;;;;;;5007985;28;20421;-58
2022/10/17 00:35:20;;;;;;;1.97;1.40;;;21.90;46.30;;;;;;5018517;28;20994;-58
2022/10/17 00:37:45;;;;;;;2.00;1.77;;;21.90;46.30;;;;;;5024228;28;20309;-58
2022/10/17 00:40:11;;;;;;;1.50;1.40;;;21.90;46.30;;;;;;5018593;28;20304;-58
2022/10/17 00:42:37;;;;;;;1.50;1.40;;;21.90;46.30;;;;;;5019362;28;20288;-58
2022/10/17 00:45:16;;;;;;;1.60;1.50;;;21.90;46.30;;;;;;5017096;28;20483;-58
2022/10/17 00:47:43;;;;;;;1.60;1.50;;;21.90;46.30;;;;;;5007276;28;20215;-58
2022/10/17 00:50:09;;;;;;;1.40;1.30;;;21.90;46.40;;;;;;5011004;28;20452;-58
2022/10/17 00:52:35;;;;;;;1.97;1.50;;;21.90;46.40;;;;;;5023281;28;20549;-58
2022/10/17 00:55:15;;;;;;;1.40;1.30;;;21.90;46.40;;;;;;5012827;28;20470;-58
2022/10/17 00:57:42;;;;;;;1.50;1.40;;;21.90;46.30;;;;;;5014902;28;20215;-58
2022/10/17 01:00:09;;;;;;;1.60;1.50;;;21.90;46.40;;;;;;5006128;28;20618;-58
2022/10/17 01:02:35;;;;;;;1.50;1.40;;;21.90;46.40;;;;;;5014298;28;21002;-57
2022/10/17 01:05:01;;;;;;;1.57;1.47;;;21.90;46.40;;;;;;5008575;28;20472;-58
2022/10/17 01:07:28;;;;;;;1.70;1.60;;;21.90;46.40;;;;;;5013366;28;20258;-58
2022/10/17 01:09:54;;;;;;;1.60;1.50;;;21.90;46.50;;;;;;5011182;28;20472;-58
2022/10/17 01:12:24;;;;;;;1.77;1.67;;;21.90;46.50;;;;;;5012318;28;20467;-58
2022/10/17 01:14:56;;;;;;;2.00;1.87;;;21.90;46.60;;;;;;5000592;28;20274;-57
2022/10/17 01:17:41;;;;;;;1.50;1.40;;;21.90;46.50;;;;;;5011757;28;20522;-58
2022/10/17 01:20:46;;;;;;;2.10;2.00;;;21.90;46.50;;;;;;5008407;28;20471;-58
2022/10/17 01:23:30;;;;;;;1.47;1.37;;;21.90;46.40;;;;;;5014743;28;20950;-58
2022/10/17 01:26:09;;;;;;;1.60;1.50;;;21.90;46.60;;;;;;5010576;28;20471;-57
2022/10/17 01:28:43;;;;;;;1.73;1.63;;;21.90;46.60;;;;;;5015648;28;20475;-58
2022/10/17 01:31:14;;;;;;;1.50;1.40;;;21.80;46.40;;;;;;5012328;28;20470;-58
2022/10/17 01:33:59;;;;;;;1.50;1.40;;;21.90;46.60;;;;;;5009661;28;21574;-58
2022/10/17 01:37:00;;;;;;;1.80;1.70;;;21.90;46.60;;;;;;5016097;28;20474;-58
2022/10/17 01:39:42;;;;;;;1.50;1.40;;;21.80;46.50;;;;;;5016482;28;21347;-58
2022/10/17 01:42:23;;;;;;;1.60;1.50;;;21.90;46.60;;;;;;5017214;28;20459;-58
2022/10/17 01:44:58;;;;;;;1.50;1.40;;;21.80;46.60;;;;;;5011438;28;20461;-57
2022/10/17 01:47:29;;;;;;;1.97;1.60;;;21.80;46.50;;;;;;5011105;28;20475;-57
2022/10/17 01:50:00;;;;;;;1.50;1.40;;;21.80;46.50;;;;;;5011291;28;21744;-58
2022/10/17 01:52:31;;;;;;;1.80;1.70;;;21.80;46.50;;;;;;5012387;28;20445;-58
2022/10/17 01:55:05;;;;;;;1.90;1.50;;;21.90;46.60;;;;;;5013521;28;20455;-57
2022/10/17 01:57:39;;;;;;;1.70;1.60;;;21.80;46.60;;;;;;5015243;28;20974;-58
2022/10/17 02:00:10;;;;;;;1.80;1.60;;;21.80;46.50;;;;;;5008492;28;20938;-58
2022/10/17 02:02:36;;;;;;;1.80;1.70;;;21.80;46.50;;;;;;5002324;28;20975;-59
2022/10/17 02:05:02;;;;;;;1.50;1.40;;;21.80;46.60;;;;;;5004651;28;20476;-58
2022/10/17 02:07:28;;;;;;;1.67;1.57;;;21.80;46.60;;;;;;5010792;28;20518;-58
2022/10/17 02:09:54;;;;;;;1.90;1.80;;;21.80;46.50;;;;;;5013341;28;20967;-57
2022/10/17 02:13:21;;;;;;;1.57;1.47;;;21.80;46.60;;;;;;5011452;28;20305;-58
2022/10/17 02:16:06;;;;;;;1.77;1.67;;;21.80;46.50;;;;;;4934579;28;20278;-58
2022/10/17 02:19:09;;;;;;;1.50;1.40;;;21.80;46.50;;;;;;4946840;28;20565;-59
2022/10/17 02:21:56;;;;;;;1.70;1.60;;;21.80;46.50;;;;;;5008801;28;20512;-58
2022/10/17 02:24:40;;;;;;;1.63;1.53;;;21.80;46.60;;;;;;5008013;28;20749;-59
2022/10/17 02:27:23;;;;;;;1.90;1.80;;;21.80;46.60;;;;;;4998652;28;20514;-59
2022/10/17 02:30:05;;;;;;;2.00;1.90;;;21.80;46.60;;;;;;5010977;28;20959;-58
2022/10/17 02:32:41;;;;;;;3.80;1.87;;;21.80;46.70;;;;;;5011371;28;20448;-58
2022/10/17 02:35:10;;;;;;;2.50;1.60;;;21.80;46.60;;;;;;5010832;28;20476;-58
2022/10/17 02:37:36;;;;;;;1.83;1.73;;;21.80;46.60;;;;;;5010190;28;20574;-58
2022/10/17 02:40:04;;;;;;;1.60;1.50;;;21.80;46.60;;;;;;5016427;28;20509;-58
2022/10/17 02:42:30;;;;;;;1.60;1.50;;;21.80;46.60;;;;;;5017780;28;20444;-58
2022/10/17 02:45:00;;;;;;;2.03;1.90;;;21.80;46.60;;;;;;5010067;28;21254;-58
2022/10/17 02:47:28;;;;;;;1.93;1.83;;;21.80;46.70;;;;;;5008575;28;20502;-57
2022/10/17 02:49:57;;;;;;;1.80;1.70;;;21.80;46.60;;;;;;5008087;28;20496;-58
2022/10/17 02:52:35;;;;;;;1.83;1.73;;;21.80;46.60;;;;;;5012688;28;20465;-58
2022/10/17 02:55:14;;;;;;;1.80;1.70;;;21.80;46.70;;;;;;5005741;28;20467;-57
2022/10/17 02:57:44;;;;;;;1.73;1.63;;;21.80;46.70;;;;;;5010587;28;20467;-58
2022/10/17 03:00:13;;;;;;;1.80;1.70;;;21.80;46.70;;;;;;5014938;28;20472;-58
2022/10/17 03:02:47;;;;;;;1.70;1.60;;;21.80;46.70;;;;;;5013957;28;20460;-57
2022/10/17 03:05:20;;;;;;;1.70;1.60;;;21.80;46.70;;;;;;5013593;28;20477;-58
2022/10/17 03:07:45;;;;;;;1.70;1.60;;;21.80;46.70;;;;;;5013757;28;20460;-57
2022/10/17 03:10:11;;;;;;;1.80;1.70;;;21.80;46.70;;;;;;5018404;28;20832;-57
2022/10/17 03:12:37;;;;;;;1.80;1.70;;;21.80;46.80;;;;;;5015708;28;20222;-58
2022/10/17 03:15:03;;;;;;;2.33;2.13;;;21.80;46.70;;;;;;5014987;28;20230;-57
2022/10/17 03:17:29;;;;;;;1.70;1.60;;;21.80;46.70;;;;;;5014514;28;20721;-58
2022/10/17 03:19:54;;;;;;;1.87;1.77;;;21.80;46.70;;;;;;5011634;28;20578;-57
2022/10/17 03:22:20;;;;;;;1.80;1.70;;;21.80;46.70;;;;;;5012458;28;20443;-58
2022/10/17 03:24:45;;;;;;;2.17;1.80;;;21.80;46.80;;;;;;5013146;28;20226;-57
2022/10/17 03:27:11;;;;;;;1.97;1.87;;;21.80;46.60;;;;;;5010759;28;20218;-58
2022/10/17 03:29:36;;;;;;;2.30;2.20;;;21.80;46.70;;;;;;5012549;28;20709;-58
2022/10/17 03:32:02;;;;;;;1.90;1.80;;;21.80;46.70;;;;;;5013126;28;20223;-58
2022/10/17 03:34:27;;;;;;;2.13;2.03;;;21.80;46.80;;;;;;5011351;28;20227;-58
2022/10/17 03:36:53;;;;;;;1.80;1.70;;;21.80;46.70;;;;;;5006969;28;20264;-58
2022/10/17 03:39:18;;;;;;;1.60;1.50;;;21.80;47.50;;;;;;5007649;28;20308;-58
2022/10/17 03:41:44;;;;;;;1.80;1.70;;;21.80;46.70;;;;;;5003826;28;20211;-58
2022/10/17 03:44:09;;;;;;;2.10;2.00;;;21.80;46.70;;;;;;4998432;28;20233;-58
2022/10/17 03:46:35;;;;;;;1.57;1.47;;;21.80;46.70;;;;;;5006875;28;20238;-58
2022/10/17 03:49:00;;;;;;;1.60;1.50;;;21.80;46.70;;;;;;5009872;28;20261;-58
2022/10/17 03:51:26;;;;;;;1.53;1.43;;;21.80;46.80;;;;;;5003740;28;20269;-58
2022/10/17 03:53:51;;;;;;;1.93;1.83;;;21.80;46.70;;;;;;5014585;28;20215;-58
2022/10/17 03:56:26;;;;;;;1.90;1.80;;;21.80;46.70;;;;;;5008094;28;20701;-58
2022/10/17 03:58:53;;;;;;;2.10;2.00;;;21.80;46.80;;;;;;5006645;28;20227;-58
2022/10/17 04:01:19;;;;;;;1.80;1.70;;;21.80;46.80;;;;;;5011249;28;20491;-57
2022/10/17 04:03:49;;;;;;;1.60;1.50;;;21.80;46.80;;;;;;5012784;28;20551;-58
2022/10/17 04:06:14;;;;;;;1.80;1.70;;;21.80;46.80;;;;;;5007503;28;21206;-57
2022/10/17 04:08:41;;;;;;;2.00;1.90;;;21.80;46.80;;;;;;5011579;28;20461;-58
2022/10/17 04:11:09;;;;;;;2.10;2.00;;;21.80;46.80;;;;;;5013568;28;20225;-58
2022/10/17 04:13:35;;;;;;;2.33;2.23;;;21.80;46.80;;;;;;5013503;28;20586;-58
2022/10/17 04:16:04;;;;;;;1.90;1.80;;;21.80;46.80;;;;;;5003180;28;20456;-58
2022/10/17 04:18:30;;;;;;;2.00;1.90;;;21.80;46.80;;;;;;5016577;28;20763;-58
2022/10/17 04:20:56;;;;;;;2.00;1.90;;;21.80;46.80;;;;;;5012844;28;20542;-58
2022/10/17 04:23:22;;;;;;;1.97;1.87;;;21.80;46.80;;;;;;5015581;28;20284;-58
2022/10/17 04:25:48;;;;;;;2.10;2.00;;;21.80;46.80;;;;;;5015487;28;20235;-58
2022/10/17 04:28:13;;;;;;;1.90;1.80;;;21.80;46.80;;;;;;5017230;28;20850;-58
2022/10/17 04:30:39;;;;;;;1.80;1.70;;;21.80;46.80;;;;;;5013244;28;20454;-59
2022/10/17 04:33:04;;;;;;;1.77;1.67;;;21.80;46.80;;;;;;5009312;28;20218;-58
2022/10/17 04:35:30;;;;;;;2.03;1.93;;;21.80;46.80;;;;;;5013856;28;20230;-59
2022/10/17 04:37:55;;;;;;;1.80;1.70;;;21.80;46.80;;;;;;5008613;28;20234;-58
2022/10/17 04:40:21;;;;;;;1.80;1.70;;;21.80;46.80;;;;;;5010265;28;20219;-58
2022/10/17 04:42:47;;;;;;;1.90;1.80;;;21.80;46.90;;;;;;5009601;28;20231;-58
2022/10/17 04:45:12;;;;;;;1.80;1.70;;;21.80;46.90;;;;;;5015527;28;20637;-58
2022/10/17 04:47:38;;;;;;;1.83;1.73;;;21.80;46.80;;;;;;5020477;28;20238;-58
2022/10/17 04:50:04;;;;;;;1.97;1.87;;;21.80;46.90;;;;;;5007592;28;21634;-57
2022/10/17 04:52:30;;;;;;;1.80;1.70;;;21.80;46.90;;;;;;5014845;28;20272;-58
2022/10/17 04:54:56;;;;;;;2.17;2.07;;;21.80;47.00;;;;;;5009705;28;20436;-58
2022/10/17 04:57:21;;;;;;;1.80;1.70;;;21.80;46.80;;;;;;5012096;28;20460;-58
2022/10/17 04:59:47;;;;;;;1.77;1.67;;;21.80;46.80;;;;;;5012813;28;20226;-58
2022/10/17 05:02:12;;;;;;;1.90;1.80;;;21.80;46.80;;;;;;5015805;28;20314;-58
2022/10/17 05:04:38;;;;;;;1.90;1.80;;;21.80;46.80;;;;;;5011533;28;20276;-58
2022/10/17 05:07:03;;;;;;;1.90;1.80;;;21.80;46.80;;;;;;5006190;28;20248;-58
2022/10/17 05:09:29;;;;;;;1.60;1.50;;;21.80;46.90;;;;;;5010217;28;20751;-58
2022/10/17 05:11:54;;;;;;;1.90;1.80;;;21.80;46.80;;;;;;4997584;28;20219;-58
2022/10/17 05:14:20;;;;;;;2.03;1.93;;;21.80;46.80;;;;;;5012298;28;20222;-58
2022/10/17 05:16:46;;;;;;;1.73;1.63;;;21.80;46.80;;;;;;5019404;28;20257;-58
2022/10/17 05:19:11;;;;;;;1.63;1.53;;;21.80;46.80;;;;;;5012303;28;20264;-59
2022/10/17 05:21:37;;;;;;;1.83;1.73;;;21.80;46.80;;;;;;5012462;28;20222;-58
2022/10/17 05:24:10;;;;;;;1.77;1.67;;;21.80;46.70;;;;;;5013415;28;20301;-59
2022/10/17 05:26:36;;;;;;;1.90;1.80;;;21.80;46.80;;;;;;5020433;28;20303;-60
2022/10/17 05:29:02;;;;;;;1.70;1.60;;;21.80;46.70;;;;;;5016277;28;21159;-59
2022/10/17 05:31:29;;;;;;;2.20;2.10;;;21.80;46.70;;;;;;5013228;28;20685;-59
2022/10/17 05:33:55;;;;;;;2.00;1.90;;;21.80;46.70;;;;;;4980408;28;20910;-58
2022/10/17 05:36:21;;;;;;;1.80;1.70;;;21.80;46.70;;;;;;5008757;28;20472;-59
2022/10/17 05:38:50;;;;;;;2.13;1.80;;;21.80;46.70;;;;;;5016749;28;20455;-59
2022/10/17 05:41:16;;;;;;;1.90;1.80;;;21.80;46.70;;;;;;5013608;28;20452;-61
2022/10/17 05:43:42;;;;;;;2.00;1.90;;;21.80;46.80;;;;;;5016034;28;20867;-61
2022/10/17 05:46:08;;;;;;;2.03;1.60;;;21.80;46.80;;;;;;5006112;28;20358;-60
2022/10/17 05:48:34;;;;;;;1.80;1.70;;;21.80;46.80;;;;;;5008314;28;20230;-61
2022/10/17 05:51:06;;;;;;;2.23;2.13;;;21.80;46.70;;;;;;5013058;28;20962;-60
2022/10/17 05:53:33;;;;;;;2.10;2.00;;;21.80;46.70;;;;;;5012275;28;20235;-60
2022/10/17 05:56:00;;;;;;;2.00;1.90;;;21.80;46.80;;;;;;5006949;28;20891;-60
2022/10/17 05:58:26;;;;;;;1.80;1.70;;;21.80;46.80;;;;;;5009106;28;21402;-60
2022/10/17 06:01:00;;;;;;;6.50;1.87;;;21.80;46.80;;;;;;4999899;28;20460;-59
2022/10/17 06:03:26;;;;;;;2.13;2.03;;;21.80;46.80;;;;;;5010300;28;20531;-61
2022/10/17 06:05:52;;;;;;;2.10;2.00;;;21.80;46.80;;;;;;4992863;28;21002;-59
2022/10/17 06:08:18;;;;;;;1.90;1.80;;;21.80;46.80;;;;;;5010516;28;20226;-60
2022/10/17 06:10:47;;;;;;;2.57;2.37;;;21.80;46.80;;;;;;5005668;28;20253;-59
2022/10/17 06:13:13;;;;;;;2.10;2.00;;;21.80;46.80;;;;;;5010833;28;20654;-58
2022/10/17 06:15:39;;;;;;;2.13;2.03;;;21.80;46.80;;;;;;5008869;28;20489;-61
2022/10/17 06:18:05;;;;;;;2.00;1.90;;;21.80;46.80;;;;;;5003494;28;20739;-60
2022/10/17 06:20:30;;;;;;;2.07;1.97;;;21.80;46.80;;;;;;5014082;28;20234;-60
2022/10/17 06:22:56;;;;;;;2.93;2.13;;;21.80;46.80;;;;;;5014703;28;20219;-58
2022/10/17 06:25:21;;;;;;;1.90;1.80;;;21.80;46.80;;;;;;5012169;28;20578;-58
2022/10/17 06:27:47;;;;;;;1.90;1.80;;;21.80;46.80;;;;;;5009996;28;20349;-60
2022/10/17 06:30:12;;;;;;;1.83;1.73;;;21.80;46.90;;;;;;5013362;28;20229;-60
2022/10/17 06:32:38;;;;;;;2.20;2.10;;;21.80;46.90;;;;;;5011432;28;20215;-59
2022/10/17 06:35:04;;;;;;;2.30;2.20;;;21.80;46.80;;;;;;5013359;28;20305;-60
2022/10/17 06:37:31;;;;;;;2.00;1.90;;;21.80;46.80;;;;;;5014591;28;20303;-59
2022/10/17 06:39:57;;;;;;;2.23;2.03;;;21.80;46.90;;;;;;5005622;28;20219;-59
2022/10/17 06:42:23;;;;;;;2.10;2.00;;;21.80;46.90;;;;;;5012293;28;21216;-61
2022/10/17 06:44:48;;;;;;;2.50;2.30;;;21.80;46.90;;;;;;5001152;28;20219;-61
2022/10/17 06:47:14;;;;;;;2.23;2.13;;;21.80;46.80;;;;;;5009987;28;20239;-60
2022/10/17 06:49:39;;;;;;;2.40;2.30;;;21.80;47.00;;;;;;5013294;28;20234;-58
2022/10/17 06:52:05;;;;;;;1.83;1.73;;;21.80;46.80;;;;;;5004457;28;20224;-61
2022/10/17 06:54:30;;;;;;;2.13;2.03;;;21.80;46.90;;;;;;5003101;28;20278;-60
2022/10/17 06:56:56;;;;;;;3.27;1.90;;;21.80;46.90;;;;;;5008014;28;20576;-61
2022/10/17 06:59:21;;;;;;;1.90;1.80;;;21.80;46.90;;;;;;5004440;28;20583;-58
2022/10/17 07:01:47;;;;;;;2.30;2.20;;;21.80;46.80;;;;;;5008715;28;20709;-60
2022/10/17 07:04:13;;;;;;;2.70;2.10;;;21.80;46.90;;;;;;5003978;28;20249;-59
2022/10/17 07:06:38;;;;;;;1.90;1.80;;;21.80;46.90;;;;;;5005567;28;20628;-60
2022/10/17 07:09:05;;;;;;;2.20;2.10;;;21.80;46.90;;;;;;4990599;28;20231;-58
2022/10/17 07:11:33;;;;;;;2.00;1.90;;;21.80;46.80;;;;;;5009435;28;20644;-59
2022/10/17 07:14:00;;;;;;;2.10;2.00;;;21.80;46.80;;;;;;5011309;28;21184;-57
2022/10/17 07:16:25;;;;;;;1.70;1.60;;;21.80;46.90;;;;;;5007124;28;20468;-61
2022/10/17 07:18:51;;;;;;;2.43;2.23;;;21.80;46.90;;;;;;5008321;28;20480;-59
2022/10/17 07:21:17;;;;;;;2.23;2.13;;;21.80;46.80;;;;;;5013282;28;20725;-59
2022/10/17 07:23:42;;;;;;;2.10;2.00;;;21.80;46.80;;;;;;5008698;28;20223;-59
2022/10/17 07:26:10;;;;;;;2.00;1.90;;;21.90;47.00;;;;;;5012166;28;20252;-60
2022/10/17 07:28:38;;;;;;;2.07;1.87;;;21.80;46.80;;;;;;5012265;28;20342;-59
2022/10/17 07:31:06;;;;;;;2.03;1.93;;;21.80;46.80;;;;;;5013377;28;20924;-59
2022/10/17 07:33:32;;;;;;;2.00;1.90;;;21.80;46.80;;;;;;5011462;28;20522;-61
2022/10/17 07:35:59;;;;;;;2.10;2.00;;;21.80;46.80;;;;;;5011666;28;21141;-60
2022/10/17 07:38:25;;;;;;;1.90;1.80;;;21.80;46.80;;;;;;5011001;28;20233;-59
2022/10/17 07:41:00;;;;;;;3.93;1.93;;;21.80;46.80;;;;;;5017693;28;21128;-58
2022/10/17 07:43:26;;;;;;;1.90;1.80;;;21.80;46.80;;;;;;5008981;28;20244;-61
2022/10/17 07:45:53;;;;;;;2.17;2.07;;;21.80;46.80;;;;;;5006719;28;20485;-60
2022/10/17 07:48:20;;;;;;;2.00;1.60;;;21.80;46.90;;;;;;5018726;28;20463;-58
2022/10/17 07:50:46;;;;;;;2.57;2.20;;;21.80;47.00;;;;;;5013557;28;20462;-59
2022/10/17 07:53:11;;;;;;;1.90;1.80;;;21.80;46.90;;;;;;5017908;28;20443;-60
2022/10/17 07:55:38;;;;;;;1.83;1.73;;;21.80;46.80;;;;;;5008249;28;20254;-59
2022/10/17 07:58:04;;;;;;;2.00;1.90;;;21.90;46.90;;;;;;5011293;28;20755;-59
2022/10/17 08:00:29;;;;;;;2.53;1.90;;;21.90;47.00;;;;;;5014254;28;20599;-60
2022/10/17 08:02:55;;;;;;;1.90;1.80;;;21.90;46.90;;;;;;5012919;28;20219;-60
2022/10/17 08:05:20;;;;;;;1.90;1.80;;;21.90;47.10;;;;;;5013951;28;20243;-61
2022/10/17 08:07:46;;;;;;;2.00;1.90;;;21.80;46.80;;;;;;5010511;28;20219;-61
2022/10/17 08:10:13;;;;;;;2.00;1.80;;;21.90;47.00;;;;;;5009139;28;20313;-61
2022/10/17 08:12:38;;;;;;;1.83;1.73;;;21.90;47.00;;;;;;5020418;28;20227;-61
2022/10/17 08:15:05;;;;;;;1.80;1.70;;;21.90;47.00;;;;;;5016866;28;20471;-60
2022/10/17 08:17:33;;;;;;;2.90;2.30;;;21.90;47.00;;;;;;5016119;28;20226;-59
2022/10/17 08:19:58;;;;;;;3.57;2.00;;;21.80;46.90;;;;;;5013136;28;20476;-59
2022/10/17 08:22:24;;;;;;;12.93;2.37;;;21.90;47.00;;;;;;5016838;28;20432;-57
2022/10/17 08:24:49;;;;;;;2.80;2.13;;;21.90;47.00;;;;;;5016443;28;20636;-59
2022/10/17 08:27:20;;;;;;;3.40;2.30;;;21.90;46.90;;;;;;5006735;28;21612;-59
2022/10/17 08:29:47;;;;;;;3.33;2.10;;;21.90;47.00;;;;;;5010942;28;20234;-57
2022/10/17 08:32:13;;;;;;;5.50;2.73;;;21.90;47.00;;;;;;4999851;28;20444;-57
2022/10/17 08:34:38;;;;;;;5.23;2.37;;;21.80;47.00;;;;;;5009219;28;20472;-60
2022/10/17 08:37:04;;;;;;;2.50;2.10;;;21.90;47.00;;;;;;5012049;28;20745;-59
2022/10/17 08:39:29;;;;;;;2.20;2.00;;;21.90;47.10;;;;;;5012494;28;20230;-57
2022/10/17 08:41:58;;;;;;;3.73;2.60;;;21.90;47.00;;;;;;5007482;28;20223;-58
2022/10/17 08:44:40;;;;;;;5.90;2.10;;;21.90;47.10;;;;;;5012299;28;20226;-59
2022/10/17 08:47:15;;;;;;;2.13;2.03;;;21.90;47.10;;;;;;5008459;28;20917;-58
2022/10/17 08:49:50;;;;;;;2.57;2.07;;;21.90;47.10;;;;;;5019968;28;20455;-57
2022/10/17 08:52:43;;;;;;;2.57;2.20;;;21.90;47.10;;;;;;5011140;28;21919;-59
2022/10/17 08:55:35;;;;;;;4.90;2.43;;;21.90;47.10;;;;;;5004643;28;20484;-58
2022/10/17 08:58:01;;;;;;;4.30;2.43;;;21.90;47.00;;;;;;5011379;28;20584;-58
2022/10/17 09:00:29;;;;;;;3.17;2.30;;;21.90;47.10;;;;;;5009365;28;21101;-57
2022/10/17 09:03:14;;;;;;;4.73;2.10;;;21.90;47.10;;;;;;5009331;28;20222;-59
2022/10/17 09:05:49;;;;;;;2.20;2.10;;;21.80;47.00;;;;;;5015037;28;20468;-59
2022/10/17 09:08:35;;;;;;;4.33;2.50;;;21.90;47.10;;;;;;5007515;28;20573;-61
2022/10/17 09:11:19;;;;;;;2.20;2.00;;;21.90;47.10;;;;;;5000025;28;20533;-60
2022/10/17 09:14:17;;;;;;;2.43;2.20;;;21.90;47.10;;;;;;5002317;28;21046;-60
2022/10/17 09:16:48;;;;;;;2.20;1.70;;;21.90;47.10;;;;;;4996940;28;20456;-59
2022/10/17 09:19:23;;;;;;;2.20;2.10;;;21.90;47.20;;;;;;5013473;28;20464;-59
2022/10/17 09:21:57;;;;;;;3.60;2.10;;;21.90;47.20;;;;;;5004848;28;20443;-58
2022/10/17 09:24:45;;;;;;;4.27;2.10;;;21.90;47.10;;;;;;5008049;28;20476;-59
2022/10/17 09:27:39;;;;;;;2.47;2.10;;;21.90;47.20;;;;;;4990873;28;20476;-59
2022/10/17 09:30:30;;;;;;;3.53;2.23;;;21.90;47.10;;;;;;5011996;28;20495;-60
2022/10/17 09:32:56;;;;;;;2.10;2.00;;;21.90;47.20;;;;;;5002645;28;20499;-59
2022/10/17 09:35:23;;;;;;;4.30;2.23;;;21.90;47.20;;;;;;5006469;28;20809;-59
2022/10/17 09:37:49;;;;;;;2.03;1.93;;;21.90;47.20;;;;;;5012051;28;20223;-59
2022/10/17 09:40:30;;;;;;;2.47;2.27;;;21.90;47.20;;;;;;5015002;28;20440;-60
2022/10/17 09:42:56;;;;;;;2.20;2.10;;;21.90;47.20;;;;;;5012023;28;21201;-60
2022/10/17 09:45:24;;;;;;;2.57;2.37;;;21.90;47.20;;;;;;5014163;28;20486;-58
2022/10/17 09:48:14;;;;;;;2.70;2.20;;;21.90;47.30;;;;;;5017599;28;20562;-59
2022/10/17 09:50:40;;;;;;;2.23;1.80;;;21.90;47.20;;;;;;5010472;28;20463;-59
2022/10/17 09:53:17;;;;;;;2.70;2.53;;;21.90;47.20;;;;;;5017623;28;20491;-58
2022/10/17 09:55:47;;;;;;;2.27;2.17;;;21.90;47.20;;;;;;5009628;28;20791;-61
2022/10/17 09:58:13;;;;;;;1.83;1.70;;;21.90;47.30;;;;;;5009576;28;20946;-59
2022/10/17 10:00:41;;;;;;;4.87;1.90;;;21.90;47.20;;;;;;5015070;28;20478;-59
2022/10/17 10:03:19;;;;;;;1.90;1.80;;;21.90;47.20;;;;;;5008216;28;20499;-58
2022/10/17 10:06:04;;;;;;;2.40;2.17;;;21.90;47.30;;;;;;5009716;28;20476;-59
2022/10/17 10:08:53;;;;;;;15.83;3.10;;;21.90;47.20;;;;;;5012645;28;20462;-60
2022/10/17 10:11:25;;;;;;;2.23;2.13;;;21.90;47.20;;;;;;5015909;28;20633;-60
2022/10/17 10:13:51;;;;;;;1.97;1.77;;;21.90;47.20;;;;;;5017633;28;20959;-58
2022/10/17 10:16:28;;;;;;;2.73;2.53;;;21.90;47.30;;;;;;5019463;28;20467;-59
2022/10/17 10:18:54;;;;;;;2.73;2.00;;;21.90;47.30;;;;;;5013275;28;20541;-58
2022/10/17 10:21:24;;;;;;;2.13;2.03;;;21.90;47.30;;;;;;5017653;28;20472;-59
2022/10/17 10:24:08;;;;;;;2.00;1.90;;;21.90;47.30;;;;;;5011502;28;20286;-59
2022/10/17 10:26:44;;;;;;;2.10;1.80;;;21.90;47.30;;;;;;5005341;28;20464;-61
2022/10/17 10:29:49;;;;;;;2.83;2.63;;;21.90;47.30;;;;;;5017089;28;20460;-60
2022/10/17 10:32:30;;;;;;;2.00;1.90;;;21.90;47.30;;;;;;4914260;28;20511;-61
2022/10/17 10:35:20;;;;;;;4.80;2.20;;;21.90;47.30;;;;;;5008755;28;20458;-61
2022/10/17 10:37:49;;;;;;;2.43;2.30;;;21.90;47.50;;;;;;5016534;28;20458;-61
2022/10/17 10:40:36;;;;;;;1.83;1.73;;;21.90;47.40;;;;;;5009051;28;20457;-61
2022/10/17 10:43:05;;;;;;;2.23;2.13;;;21.90;47.40;;;;;;5014052;28;20456;-61
2022/10/17 10:45:36;;;;;;;2.63;2.37;;;21.90;47.40;;;;;;5012779;28;20958;-60
2022/10/17 10:48:11;;;;;;;2.17;2.07;;;21.90;47.30;;;;;;5016205;28;20470;-58
2022/10/17 10:50:46;;;;;;;2.10;2.00;;;21.90;47.30;;;;;;5010879;28;20479;-61
2022/10/17 10:53:29;;;;;;;2.67;2.20;;;21.90;47.30;;;;;;5007838;28;20495;-61
2022/10/17 10:56:04;;;;;;;2.17;2.07;;;21.90;47.30;;;;;;5003415;28;20459;-62
2022/10/17 10:58:55;;;;;;;1.90;1.70;;;21.90;47.30;;;;;;4979898;28;20521;-60
2022/10/17 11:01:43;;;;;;;2.03;1.93;;;21.90;47.20;;;;;;5007763;28;20547;-61
2022/10/17 11:04:33;;;;;;;3.50;2.60;;;21.90;47.30;;;;;;5010117;28;20464;-62
2022/10/17 11:07:21;;;;;;;1.70;1.60;;;21.90;47.30;;;;;;5016698;28;20522;-61
2022/10/17 11:10:11;;;;;;;2.20;2.10;;;21.90;47.30;;;;;;5005448;28;20491;-62
2022/10/17 11:12:56;;;;;;;2.00;1.80;;;21.90;47.30;;;;;;5009495;28;20464;-60
2022/10/17 11:15:45;;;;;;;2.17;2.07;;;21.90;47.20;;;;;;5006643;28;20472;-61
2022/10/17 11:18:24;;;;;;;2.10;2.00;;;21.90;47.30;;;;;;5008184;28;20506;-61
2022/10/17 11:21:12;;;;;;;1.90;1.80;;;21.90;47.30;;;;;;5015349;28;20504;-60
2022/10/17 11:23:46;;;;;;;1.93;1.83;;;21.90;47.30;;;;;;5013082;28;20508;-61
2022/10/17 11:26:24;;;;;;;2.30;2.10;;;21.90;47.30;;;;;;5009668;28;20459;-61
2022/10/17 11:28:52;;;;;;;1.97;1.87;;;21.90;47.30;;;;;;5000606;28;20464;-60
2022/10/17 11:31:20;;;;;;;2.27;2.10;;;21.90;47.30;;;;;;5009721;28;20460;-60
2022/10/17 11:33:54;;;;;;;2.17;1.97;;;21.90;47.20;;;;;;5002575;28;20478;-62
2022/10/17 11:36:25;;;;;;;1.97;1.87;;;21.90;47.30;;;;;;4992795;28;20559;-61
2022/10/17 11:39:29;;;;;;;2.20;2.10;;;21.90;47.30;;;;;;4992974;28;20871;-62
2022/10/17 11:42:11;;;;;;;2.17;2.07;;;21.90;47.20;;;;;;4927727;28;20467;-58
2022/10/17 11:44:39;;;;;;;2.17;2.07;;;21.90;47.30;;;;;;4997270;28;20620;-63
2022/10/17 11:47:20;;;;;;;2.17;2.07;;;21.90;47.50;;;;;;5010156;28;20530;-61
2022/10/17 11:50:15;;;;;;;2.10;2.00;;;21.90;47.30;;;;;;5007929;28;20999;-62
2022/10/17 11:52:49;;;;;;;2.00;1.90;;;21.90;47.30;;;;;;5007602;28;20516;-63
2022/10/17 11:55:20;;;;;;;1.97;1.87;;;21.90;47.30;;;;;;5012243;28;20427;-63
2022/10/17 11:58:28;;;;;;;2.97;1.90;;;21.90;47.30;;;;;;5013031;28;20472;-62
2022/10/17 12:01:12;;;;;;;2.57;2.40;;;21.90;47.30;;;;;;4998358;28;20469;-61
2022/10/17 12:03:46;;;;;;;1.80;1.70;;;21.90;47.30;;;;;;5000757;28;20464;-62
2022/10/17 12:06:28;;;;;;;2.20;2.00;;;21.90;47.30;;;;;;4996374;28;20648;-62
2022/10/17 12:09:26;;;;;;;1.80;1.70;;;21.90;47.30;;;;;;5004687;28;20577;-62
2022/10/17 12:11:53;;;;;;;2.07;1.97;;;21.90;47.30;;;;;;4999099;28;20467;-64
2022/10/17 12:14:37;;;;;;;1.80;1.70;;;21.90;47.30;;;;;;4992411;28;20435;-60
2022/10/17 12:17:21;;;;;;;2.30;2.20;;;21.90;47.30;;;;;;4998764;28;20582;-61
2022/10/17 12:19:47;;;;;;;2.23;2.10;;;21.90;47.30;;;;;;4987549;28;20582;-59
2022/10/17 12:22:19;;;;;;;2.10;2.00;;;21.90;47.30;;;;;;4991404;28;20467;-60
2022/10/17 12:24:57;;;;;;;2.40;2.30;;;21.90;47.30;;;;;;5004707;28;20272;-58
2022/10/17 12:27:28;;;;;;;2.10;2.00;;;21.90;47.30;;;;;;5002716;28;20510;-62
2022/10/17 12:30:16;;;;;;;2.23;2.13;;;21.90;47.30;;;;;;5002622;28;20471;-60
2022/10/17 12:32:57;;;;;;;2.50;1.83;;;21.90;47.30;;;;;;5005116;28;21148;-61
2022/10/17 12:35:25;;;;;;;2.00;1.90;;;21.90;47.30;;;;;;5011257;28;20473;-61
2022/10/17 12:37:50;;;;;;;1.80;1.70;;;21.90;47.40;;;;;;5009236;28;20456;-61
2022/10/17 12:40:34;;;;;;;1.97;1.87;;;21.90;47.40;;;;;;5003028;28;20525;-61
2022/10/17 12:43:02;;;;;;;2.40;2.30;;;21.90;47.30;;;;;;4998909;28;20229;-59
2022/10/17 12:45:47;;;;;;;2.20;2.10;;;21.90;47.30;;;;;;5004096;28;20620;-61
2022/10/17 12:48:33;;;;;;;2.20;2.00;;;21.90;47.30;;;;;;4992641;28;20473;-60
2022/10/17 12:51:21;;;;;;;2.33;2.23;;;21.90;47.40;;;;;;5006717;28;20458;-60
2022/10/17 12:53:56;;;;;;;2.20;2.10;;;21.90;47.30;;;;;;5000778;28;21019;-59
2022/10/17 12:56:35;;;;;;;2.07;1.97;;;21.90;47.30;;;;;;5013682;28;20479;-61
2022/10/17 12:59:06;;;;;;;1.90;1.80;;;21.90;47.30;;;;;;5008140;28;21214;-59
2022/10/17 13:01:35;;;;;;;2.17;1.70;;;21.90;47.30;;;;;;5002138;28;21675;-60
2022/10/17 13:04:04;;;;;;;1.97;1.87;;;21.90;47.40;;;;;;5001280;28;20889;-60
2022/10/17 13:06:36;;;;;;;1.80;1.70;;;21.90;47.40;;;;;;5007596;28;20471;-61
2022/10/17 13:09:14;;;;;;;1.90;1.80;;;21.90;47.40;;;;;;4996403;28;20952;-60
2022/10/17 13:11:41;;;;;;;2.10;2.00;;;21.90;47.30;;;;;;5006013;28;20444;-58